createdAt,value
2019-03-17T00:02:14.578Z,1.47
2019-03-17T00:04:43.654Z,1.63
2019-03-17T00:07:16.046Z,1.70
2019-03-17T00:09:46.677Z,1.20
2019-03-17T00:12:19.595Z,1.40
2019-03-17T00:15:04.319Z,1.70
2019-03-17T00:17:25.030Z,1.43
2019-03-17T00:19:54.983Z,1.27
2019-03-17T00:22:24.078Z,1.13
2019-03-17T00:24:53.596Z,1.50
2019-03-17T00:27:22.703Z,1.30
2019-03-17T00:29:55.197Z,1.60
2019-03-17T00:32:28.354Z,0.90
2019-03-17T00:34:57.399Z,1.40
2019-03-17T00:37:26.469Z,1.37
2019-03-17T00:39:55.508Z,1.27
2019-03-17T00:42:27.389Z,1.30
2019-03-17T00:45:00.822Z,1.20
2019-03-17T00:47:31.977Z,1.40
2019-03-17T00:50:00.710Z,1.60
2019-03-17T00:52:30.113Z,1.40
2019-03-17T00:54:59.321Z,1.83
2019-03-17T00:57:30.232Z,1.40
2019-03-17T00:59:59.425Z,1.30
2019-03-17T01:02:29.569Z,1.63
2019-03-17T01:04:58.637Z,1.40
2019-03-17T01:07:29.400Z,1.30
2019-03-17T01:09:59.935Z,1.30
2019-03-17T01:12:32.828Z,0.90
2019-03-17T01:15:01.962Z,0.70
2019-03-17T01:17:35.577Z,1.10
2019-03-17T01:20:04.983Z,0.90
2019-03-17T01:22:35.715Z,1.43
2019-03-17T01:25:05.747Z,0.90
2019-03-17T01:27:35.998Z,1.03
2019-03-17T01:30:07.918Z,0.87
2019-03-17T01:32:41.565Z,0.90
2019-03-17T01:35:12.729Z,1.20
2019-03-17T01:37:47.762Z,1.03
2019-03-17T01:40:23.002Z,1.30
2019-03-17T01:42:53.020Z,1.13
2019-03-17T01:45:27.163Z,1.00
2019-03-17T01:47:59.186Z,1.13
2019-03-17T01:50:28.298Z,1.00
2019-03-17T01:52:58.946Z,1.03
2019-03-17T01:55:28.197Z,1.00
2019-03-17T01:58:00.284Z,1.30
2019-03-17T02:00:36.219Z,1.07
2019-03-17T02:03:07.013Z,1.20
2019-03-17T02:05:36.069Z,1.10
2019-03-17T02:08:05.190Z,1.30
2019-03-17T02:10:35.301Z,0.70
2019-03-17T02:13:04.399Z,1.00
2019-03-17T02:15:36.159Z,0.93
2019-03-17T02:18:10.067Z,1.27
2019-03-17T02:20:39.118Z,0.67
2019-03-17T02:23:08.356Z,1.20
2019-03-17T02:25:41.107Z,1.00
2019-03-17T02:28:10.470Z,1.10
2019-03-17T02:30:41.360Z,1.23
2019-03-17T02:33:14.301Z,0.80
2019-03-17T02:35:46.779Z,1.13
2019-03-17T02:38:17.120Z,0.90
2019-03-17T02:40:46.301Z,1.10
2019-03-17T02:43:15.383Z,0.77
2019-03-17T02:45:53.417Z,1.03
2019-03-17T02:48:33.671Z,0.80
2019-03-17T02:51:03.315Z,1.07
2019-03-17T02:53:32.400Z,0.70
2019-03-17T02:56:01.461Z,0.87
2019-03-17T02:58:30.504Z,0.80
2019-03-17T03:00:59.566Z,0.90
2019-03-17T03:03:32.526Z,1.10
2019-03-17T03:06:02.566Z,1.10
2019-03-17T03:08:38.379Z,2.07
2019-03-17T03:11:07.623Z,1.20
2019-03-17T03:13:37.773Z,0.90
2019-03-17T03:16:06.812Z,1.23
2019-03-17T03:18:35.869Z,0.90
2019-03-17T03:21:05.619Z,1.07
2019-03-17T03:23:34.941Z,1.10
2019-03-17T03:26:03.975Z,1.23
2019-03-17T03:28:33.114Z,1.00
2019-03-17T03:31:22.623Z,1.57
2019-03-17T03:33:52.235Z,0.80
2019-03-17T03:36:21.274Z,1.27
2019-03-17T03:38:52.048Z,1.07
2019-03-17T03:41:21.228Z,0.97
2019-03-17T03:43:52.445Z,1.50
2019-03-17T03:46:22.994Z,1.10
2019-03-17T03:48:55.259Z,1.20
2019-03-17T03:51:29.424Z,1.10
2019-03-17T03:53:58.485Z,1.00
2019-03-17T03:56:27.523Z,0.93
2019-03-17T03:58:56.630Z,0.80
2019-03-17T04:01:31.297Z,0.93
2019-03-17T04:04:00.533Z,1.60
2019-03-17T04:06:29.760Z,0.80
2019-03-17T04:09:00.099Z,1.30
2019-03-17T04:11:29.376Z,1.10
2019-03-17T04:14:04.440Z,1.07
2019-03-17T04:16:33.496Z,0.93
2019-03-17T04:19:02.551Z,1.60
2019-03-17T04:21:36.934Z,0.97
2019-03-17T04:24:06.117Z,1.00
2019-03-17T04:26:37.953Z,0.90
2019-03-17T04:29:07.874Z,0.90
2019-03-17T04:31:38.621Z,0.90
2019-03-17T04:34:09.321Z,1.43
2019-03-17T04:36:40.452Z,1.00
2019-03-17T04:39:09.295Z,0.83
2019-03-17T04:41:38.367Z,1.00
2019-03-17T04:44:07.479Z,0.80
2019-03-17T04:46:41.168Z,1.30
2019-03-17T04:49:10.283Z,0.80
2019-03-17T04:51:39.445Z,1.10
2019-03-17T04:54:10.409Z,1.33
2019-03-17T04:56:39.478Z,0.90
2019-03-17T04:59:29.111Z,1.00
2019-03-17T05:01:58.191Z,0.90
2019-03-17T05:04:27.251Z,1.20
2019-03-17T05:06:56.399Z,1.00
2019-03-17T05:09:25.444Z,0.70
2019-03-17T05:11:54.526Z,0.83
2019-03-17T05:14:23.636Z,1.27
2019-03-17T05:16:53.760Z,1.17
2019-03-17T05:19:22.708Z,1.23
2019-03-17T05:21:53.433Z,0.83
2019-03-17T05:24:22.738Z,1.17
2019-03-17T05:26:51.831Z,0.90
2019-03-17T05:29:20.896Z,0.93
2019-03-17T05:31:50.335Z,1.00
2019-03-17T05:34:42.394Z,0.90
2019-03-17T05:37:14.438Z,1.20
2019-03-17T05:39:43.857Z,0.90
2019-03-17T05:42:14.089Z,1.20
2019-03-17T05:44:43.227Z,1.03
2019-03-17T05:47:12.272Z,1.00
2019-03-17T05:49:41.349Z,1.00
2019-03-17T05:52:10.528Z,1.00
2019-03-17T05:54:39.588Z,1.13
2019-03-17T05:57:08.641Z,0.93
2019-03-17T05:59:37.935Z,1.20
2019-03-17T06:02:10.154Z,1.37
2019-03-17T06:04:39.199Z,0.90
2019-03-17T06:07:18.058Z,1.50
2019-03-17T06:09:40.776Z,1.27
2019-03-17T06:12:15.484Z,1.10
2019-03-17T06:14:45.468Z,1.10
2019-03-17T06:17:16.399Z,1.00
2019-03-17T06:19:45.435Z,1.20
2019-03-17T06:22:16.947Z,1.20
2019-03-17T06:24:49.283Z,1.10
2019-03-17T06:27:20.829Z,0.87
2019-03-17T06:29:50.363Z,1.10
2019-03-17T06:32:19.476Z,1.10
2019-03-17T06:34:48.565Z,1.20
2019-03-17T06:37:30.627Z,1.40
2019-03-17T06:39:55.190Z,1.23
2019-03-17T06:42:26.186Z,0.90
2019-03-17T06:44:56.772Z,1.13
2019-03-17T06:47:25.867Z,0.97
2019-03-17T06:49:54.911Z,1.53
2019-03-17T06:52:24.021Z,1.13
2019-03-17T06:54:53.058Z,1.53
2019-03-17T06:57:22.155Z,0.90
2019-03-17T06:59:51.237Z,1.10
2019-03-17T07:02:20.354Z,1.03
2019-03-17T07:04:53.839Z,1.20
2019-03-17T07:07:20.261Z,1.57
2019-03-17T07:09:49.707Z,1.17
2019-03-17T07:12:18.770Z,1.27
2019-03-17T07:14:49.233Z,1.17
2019-03-17T07:17:19.476Z,1.00
2019-03-17T07:19:48.617Z,1.13
2019-03-17T07:22:17.741Z,0.97
2019-03-17T07:24:48.153Z,1.20
2019-03-17T07:27:21.839Z,1.20
2019-03-17T07:29:50.914Z,0.90
2019-03-17T07:32:20.378Z,1.10
2019-03-17T07:34:56.947Z,0.90
2019-03-17T07:37:29.066Z,0.93
2019-03-17T07:39:59.724Z,0.90
2019-03-17T07:42:29.233Z,1.00
2019-03-17T07:44:58.355Z,1.10
2019-03-17T07:47:27.752Z,1.17
2019-03-17T07:49:59.293Z,1.70
2019-03-17T07:52:28.485Z,1.20
2019-03-17T07:54:59.053Z,1.10
2019-03-17T07:57:28.037Z,1.30
2019-03-17T07:59:58.951Z,1.13
2019-03-17T08:02:29.252Z,1.40
2019-03-17T08:05:07.539Z,1.30
2019-03-17T08:07:40.310Z,1.47
2019-03-17T08:10:11.496Z,1.83
2019-03-17T08:12:43.092Z,1.37
2019-03-17T08:15:14.154Z,0.97
2019-03-17T08:17:43.348Z,1.27
2019-03-17T08:20:14.627Z,0.97
2019-03-17T08:22:43.676Z,1.70
2019-03-17T08:25:13.361Z,1.10
2019-03-17T08:27:42.869Z,1.20
2019-03-17T08:30:14.643Z,0.90
2019-03-17T08:32:43.713Z,0.90
2019-03-17T08:35:13.982Z,1.10
2019-03-17T08:37:43.143Z,1.30
2019-03-17T08:40:12.817Z,1.23
2019-03-17T08:42:41.875Z,1.17
2019-03-17T08:45:15.750Z,1.20
2019-03-17T08:47:57.528Z,1.40
2019-03-17T08:50:18.457Z,1.37
2019-03-17T08:52:49.076Z,0.90
2019-03-17T08:55:19.344Z,1.23
2019-03-17T08:57:49.702Z,0.80
2019-03-17T09:00:19.116Z,1.40
2019-03-17T09:02:48.257Z,1.30
2019-03-17T09:05:17.426Z,1.47
2019-03-17T09:07:47.678Z,1.67
2019-03-17T09:10:16.743Z,1.53
2019-03-17T09:12:47.948Z,2.03
2019-03-17T09:15:18.551Z,1.10
2019-03-17T09:17:47.646Z,1.23
2019-03-17T09:20:16.765Z,1.20
2019-03-17T09:22:45.837Z,1.30
2019-03-17T09:25:15.853Z,1.80
2019-03-17T09:27:45.919Z,1.30
2019-03-17T09:30:17.063Z,1.50
2019-03-17T09:32:50.078Z,1.93
2019-03-17T09:35:19.203Z,1.50
2019-03-17T09:37:49.369Z,1.70
2019-03-17T09:40:20.490Z,1.87
2019-03-17T09:42:50.042Z,1.67
2019-03-17T09:45:22.298Z,1.73
2019-03-17T09:47:51.399Z,1.50
2019-03-17T09:50:20.562Z,1.30
2019-03-17T09:52:49.615Z,2.80
2019-03-17T09:55:18.753Z,2.30
2019-03-17T09:57:47.801Z,2.10
2019-03-17T10:00:17.610Z,2.17
2019-03-17T10:02:49.772Z,2.60
2019-03-17T10:05:18.873Z,2.83
2019-03-17T10:07:47.979Z,2.30
2019-03-17T10:10:17.083Z,2.83
2019-03-17T10:12:47.511Z,1.80
2019-03-17T10:15:16.601Z,2.00
2019-03-17T10:17:48.793Z,1.30
2019-03-17T10:20:19.690Z,2.27
2019-03-17T10:22:49.411Z,1.97
2019-03-17T10:25:18.624Z,2.10
2019-03-17T10:27:52.104Z,1.70
2019-03-17T10:30:21.504Z,1.60
2019-03-17T10:32:51.977Z,2.30
2019-03-17T10:35:21.061Z,2.53
2019-03-17T10:37:53.611Z,1.97
2019-03-17T10:40:26.456Z,2.13
2019-03-17T10:42:56.046Z,3.27
2019-03-17T10:45:25.071Z,2.77
2019-03-17T10:47:54.744Z,1.57
2019-03-17T10:50:24.033Z,2.10
2019-03-17T10:52:53.424Z,1.33
2019-03-17T10:55:34.650Z,2.63
2019-03-17T10:58:04.184Z,2.00
2019-03-17T11:00:36.310Z,2.10
2019-03-17T11:03:08.371Z,2.30
2019-03-17T11:05:37.469Z,2.10
2019-03-17T11:08:06.520Z,1.67
2019-03-17T11:10:35.595Z,1.70
2019-03-17T11:13:06.048Z,2.03
2019-03-17T11:15:37.195Z,1.60
2019-03-17T11:18:08.392Z,2.53
2019-03-17T11:20:37.827Z,2.37
2019-03-17T11:23:06.916Z,2.30
2019-03-17T11:25:36.092Z,2.20
2019-03-17T11:28:05.173Z,3.33
2019-03-17T11:30:37.723Z,1.63
2019-03-17T11:33:07.196Z,2.00
2019-03-17T11:35:36.277Z,1.90
2019-03-17T11:38:05.850Z,1.90
2019-03-17T11:40:35.496Z,4.63
2019-03-17T11:43:06.540Z,1.80
2019-03-17T11:45:50.448Z,1.80
2019-03-17T11:48:19.744Z,2.07
2019-03-17T11:50:51.547Z,1.60
2019-03-17T11:53:20.644Z,2.30
2019-03-17T11:55:49.716Z,2.33
2019-03-17T11:58:18.870Z,2.40
2019-03-17T12:00:48.137Z,2.17
2019-03-17T12:03:18.445Z,1.90
2019-03-17T12:05:48.355Z,2.00
2019-03-17T12:08:23.409Z,1.93
2019-03-17T12:10:54.975Z,2.50
2019-03-17T12:13:24.096Z,2.30
2019-03-17T12:15:53.531Z,2.00
2019-03-17T12:18:25.998Z,2.47
2019-03-17T12:20:58.419Z,2.30
2019-03-17T12:23:27.733Z,2.40
2019-03-17T12:25:57.185Z,2.70
2019-03-17T12:28:26.448Z,4.53
2019-03-17T12:30:56.572Z,2.77
2019-03-17T12:33:31.635Z,2.67
2019-03-17T12:36:00.743Z,2.83
2019-03-17T12:38:34.542Z,2.43
2019-03-17T12:41:06.798Z,2.43
2019-03-17T12:43:36.283Z,2.57
2019-03-17T12:46:05.858Z,2.27
2019-03-17T12:48:35.020Z,3.70
2019-03-17T12:51:05.477Z,3.10
2019-03-17T12:53:34.549Z,2.60
2019-03-17T12:56:11.158Z,2.80
2019-03-17T12:58:40.524Z,3.30
2019-03-17T13:01:09.616Z,2.43
2019-03-17T13:03:42.360Z,2.40
2019-03-17T13:06:11.443Z,2.47
2019-03-17T13:08:40.555Z,2.60
2019-03-17T13:11:10.649Z,2.50
2019-03-17T13:13:40.014Z,2.13
2019-03-17T13:16:10.211Z,2.37
2019-03-17T13:18:41.788Z,2.00
2019-03-17T13:21:17.630Z,1.67
2019-03-17T13:23:46.883Z,1.37
2019-03-17T13:26:15.948Z,0.90
2019-03-17T13:28:45.113Z,1.40
2019-03-17T13:31:15.130Z,1.23
2019-03-17T13:33:44.224Z,0.80
2019-03-17T13:36:13.277Z,0.60
2019-03-17T13:38:42.377Z,1.07
2019-03-17T13:41:11.468Z,0.80
2019-03-17T13:43:40.530Z,0.80
2019-03-17T13:46:11.552Z,0.93
2019-03-17T13:48:44.546Z,0.50
2019-03-17T13:51:13.609Z,0.80
2019-03-17T13:53:43.260Z,0.40
2019-03-17T13:56:14.675Z,0.47
2019-03-17T13:58:43.740Z,0.60
2019-03-17T14:01:17.442Z,0.60
2019-03-17T14:03:46.670Z,0.40
2019-03-17T14:06:15.782Z,0.40
2019-03-17T14:08:46.789Z,0.60
2019-03-17T14:11:19.050Z,0.50
2019-03-17T14:13:48.104Z,0.60
2019-03-17T14:16:22.140Z,1.00
2019-03-17T14:18:51.332Z,1.03
2019-03-17T14:21:20.376Z,1.30
2019-03-17T14:23:49.477Z,0.93
2019-03-17T14:26:40.864Z,1.07
2019-03-17T14:29:14.306Z,2.60
2019-03-17T14:31:46.599Z,2.70
2019-03-17T14:34:15.715Z,1.37
2019-03-17T14:36:44.776Z,3.03
2019-03-17T14:39:13.850Z,1.47
2019-03-17T14:41:42.915Z,0.70
2019-03-17T14:44:11.977Z,1.37
2019-03-17T14:46:42.810Z,0.83
2019-03-17T14:49:14.983Z,0.70
2019-03-17T14:51:44.528Z,0.90
2019-03-17T14:54:17.957Z,0.87
2019-03-17T14:56:47.018Z,1.30
2019-03-17T14:59:16.516Z,0.70
2019-03-17T15:01:47.203Z,0.70
2019-03-17T15:04:16.341Z,0.70
2019-03-17T15:06:45.445Z,0.80
2019-03-17T15:09:14.545Z,1.23
2019-03-17T15:11:43.693Z,0.73
2019-03-17T15:14:12.688Z,0.97
2019-03-17T15:16:41.773Z,0.80
2019-03-17T15:19:10.850Z,1.20
2019-03-17T15:21:39.943Z,0.63
2019-03-17T15:24:09.450Z,1.07
2019-03-17T15:26:38.545Z,1.23
2019-03-17T15:29:09.447Z,1.07
2019-03-17T15:31:39.510Z,1.10
2019-03-17T15:34:09.940Z,1.30
2019-03-17T15:36:41.861Z,0.87
2019-03-17T15:39:15.725Z,1.83
2019-03-17T15:41:48.296Z,1.20
2019-03-17T15:44:17.508Z,1.43
2019-03-17T15:46:46.580Z,0.90
2019-03-17T15:49:15.938Z,0.60
2019-03-17T15:51:45.133Z,0.90
2019-03-17T15:54:15.786Z,0.70
2019-03-17T15:56:44.840Z,1.00
2019-03-17T15:59:13.924Z,0.90
2019-03-17T16:01:43.006Z,1.10
2019-03-17T16:04:13.436Z,1.00
2019-03-17T16:06:43.486Z,1.40
2019-03-17T16:09:12.578Z,1.57
2019-03-17T16:11:44.264Z,1.10
2019-03-17T16:14:36.809Z,0.90
2019-03-17T16:16:45.337Z,1.63
2019-03-17T16:19:14.395Z,0.80
2019-03-17T16:21:43.463Z,1.03
2019-03-17T16:24:16.491Z,1.80
2019-03-17T16:26:45.560Z,2.20
2019-03-17T16:29:14.803Z,1.10
2019-03-17T16:31:45.563Z,1.40
2019-03-17T16:34:19.329Z,1.60
2019-03-17T16:36:50.585Z,2.20
2019-03-17T16:39:22.846Z,1.40
2019-03-17T16:41:51.951Z,0.70
2019-03-17T16:44:21.025Z,1.53
2019-03-17T16:46:52.602Z,1.23
2019-03-17T16:49:21.666Z,1.03
2019-03-17T16:51:53.833Z,3.00
2019-03-17T16:54:23.348Z,2.20
2019-03-17T16:56:54.102Z,2.03
2019-03-17T16:59:24.426Z,1.10
2019-03-17T17:01:55.323Z,1.50
2019-03-17T17:04:27.153Z,1.57
2019-03-17T17:06:58.024Z,0.93
2019-03-17T17:09:31.011Z,1.07
2019-03-17T17:12:04.702Z,1.23
2019-03-17T17:14:35.002Z,1.20
2019-03-17T17:17:04.303Z,1.30
2019-03-17T17:19:33.844Z,1.37
2019-03-17T17:22:03.030Z,2.40
2019-03-17T17:24:33.496Z,1.90
2019-03-17T17:27:02.562Z,2.80
2019-03-17T17:29:33.412Z,1.53
2019-03-17T17:32:02.512Z,3.00
2019-03-17T17:34:36.074Z,1.50
2019-03-17T17:37:07.048Z,1.00
2019-03-17T17:39:36.495Z,1.67
2019-03-17T17:42:09.948Z,3.10
2019-03-17T17:44:36.543Z,1.33
2019-03-17T17:47:05.653Z,1.33
2019-03-17T17:49:34.720Z,1.00
2019-03-17T17:52:05.160Z,1.40
2019-03-17T17:54:37.538Z,1.00
2019-03-17T17:57:09.608Z,0.83
2019-03-17T17:59:41.821Z,1.40
2019-03-17T18:02:13.976Z,1.13
2019-03-17T18:04:43.166Z,1.03
2019-03-17T18:07:13.585Z,1.40
2019-03-17T18:09:51.073Z,0.93
2019-03-17T18:12:21.424Z,1.37
2019-03-17T18:14:50.874Z,1.03
2019-03-17T18:17:22.343Z,1.27
2019-03-17T18:19:51.421Z,1.27
2019-03-17T18:22:20.543Z,1.10
2019-03-17T18:24:51.653Z,0.90
2019-03-17T18:27:20.792Z,1.27
2019-03-17T18:29:49.918Z,0.90
2019-03-17T18:32:18.942Z,1.23
2019-03-17T18:34:50.526Z,1.23
2019-03-17T18:37:19.335Z,1.53
2019-03-17T18:39:48.483Z,1.40
2019-03-17T18:42:19.984Z,1.87
2019-03-17T18:44:49.097Z,1.43
2019-03-17T18:47:18.196Z,1.60
2019-03-17T18:49:48.594Z,1.07
2019-03-17T18:52:24.969Z,1.03
2019-03-17T18:54:56.882Z,1.30
2019-03-17T18:57:27.754Z,1.50
2019-03-17T18:59:59.897Z,1.70
2019-03-17T19:02:31.012Z,1.80
2019-03-17T19:05:02.446Z,1.10
2019-03-17T19:07:33.220Z,1.80
2019-03-17T19:10:04.013Z,2.23
2019-03-17T19:12:44.966Z,1.37
2019-03-17T19:15:24.822Z,1.90
2019-03-17T19:17:53.923Z,1.50
2019-03-17T19:20:25.057Z,1.40
2019-03-17T19:22:54.142Z,1.10
2019-03-17T19:25:23.290Z,1.73
2019-03-17T19:27:54.421Z,1.70
2019-03-17T19:30:23.620Z,1.67
2019-03-17T19:32:54.129Z,1.00
2019-03-17T19:35:23.459Z,1.50
2019-03-17T19:37:52.635Z,1.33
2019-03-17T19:40:22.855Z,1.00
2019-03-17T19:42:59.090Z,1.30
2019-03-17T19:45:24.462Z,1.50
2019-03-17T19:47:53.863Z,1.43
2019-03-17T19:50:22.993Z,1.30
2019-03-17T19:52:52.206Z,1.00
2019-03-17T19:55:22.879Z,1.80
2019-03-17T19:57:51.979Z,1.60
2019-03-17T20:00:22.405Z,0.90
2019-03-17T20:02:52.744Z,1.27
2019-03-17T20:05:22.070Z,1.30
2019-03-17T20:07:51.164Z,1.20
2019-03-17T20:10:22.984Z,1.10
2019-03-17T20:12:56.671Z,0.97
2019-03-17T20:15:27.320Z,1.47
2019-03-17T20:17:56.739Z,1.20
2019-03-17T20:20:27.010Z,1.20
2019-03-17T20:22:58.151Z,0.87
2019-03-17T20:25:27.640Z,1.17
2019-03-17T20:27:57.047Z,1.67
2019-03-17T20:30:27.266Z,1.33
2019-03-17T20:32:56.543Z,1.40
2019-03-17T20:35:30.132Z,1.03
2019-03-17T20:37:59.217Z,0.80
2019-03-17T20:40:28.276Z,0.70
2019-03-17T20:42:58.517Z,0.97
2019-03-17T20:45:31.207Z,1.00
2019-03-17T20:48:01.781Z,0.70
2019-03-17T20:50:31.028Z,1.37
2019-03-17T20:53:03.215Z,0.73
2019-03-17T20:55:32.466Z,1.07
2019-03-17T20:58:02.828Z,1.40
2019-03-17T21:00:35.026Z,0.70
2019-03-17T21:03:07.498Z,1.83
2019-03-17T21:05:36.574Z,1.70
2019-03-17T21:08:08.443Z,1.10
2019-03-17T21:10:40.477Z,2.00
2019-03-17T21:13:11.436Z,1.53
2019-03-17T21:15:43.810Z,1.30
2019-03-17T21:18:12.948Z,1.67
2019-03-17T21:20:42.066Z,0.80
2019-03-17T21:23:11.118Z,0.80
2019-03-17T21:25:42.153Z,1.10
2019-03-17T21:28:11.205Z,0.80
2019-03-17T21:30:40.311Z,1.50
2019-03-17T21:33:09.359Z,1.20
2019-03-17T21:35:38.486Z,1.60
2019-03-17T21:38:12.201Z,1.40
2019-03-17T21:41:01.661Z,1.03
2019-03-17T21:43:19.467Z,1.23
2019-03-17T21:45:48.614Z,1.30
2019-03-17T21:48:17.727Z,0.97
2019-03-17T21:50:47.210Z,1.30
2019-03-17T21:53:16.344Z,1.30
2019-03-17T21:55:48.867Z,0.83
2019-03-17T21:58:21.155Z,1.10
2019-03-17T22:00:51.405Z,0.97
2019-03-17T22:03:22.081Z,1.00
2019-03-17T22:05:52.585Z,1.03
2019-03-17T22:08:21.657Z,1.40
2019-03-17T22:10:55.901Z,1.20
2019-03-17T22:13:27.196Z,1.10
2019-03-17T22:16:00.507Z,1.00
2019-03-17T22:18:30.997Z,1.27
2019-03-17T22:21:01.842Z,1.10
2019-03-17T22:23:32.010Z,1.00
2019-03-17T22:26:01.162Z,1.90
2019-03-17T22:28:32.223Z,0.97
2019-03-17T22:31:04.885Z,1.37
2019-03-17T22:33:35.468Z,1.47
2019-03-17T22:36:06.832Z,1.60
2019-03-17T22:38:39.953Z,1.73
2019-03-17T22:41:09.014Z,1.07
2019-03-17T22:43:38.122Z,0.70
2019-03-17T22:46:08.979Z,0.83
2019-03-17T22:48:38.669Z,1.23
2019-03-17T22:51:07.739Z,1.20
2019-03-17T22:53:41.741Z,1.40
2019-03-17T22:56:11.331Z,0.90
2019-03-17T22:58:43.572Z,1.20
2019-03-17T23:01:12.613Z,1.47
2019-03-17T23:03:41.692Z,1.13
2019-03-17T23:06:10.749Z,1.10
2019-03-17T23:08:41.217Z,0.77
2019-03-17T23:11:16.658Z,1.10
2019-03-17T23:13:45.811Z,0.50
2019-03-17T23:16:14.923Z,0.97
2019-03-17T23:18:44.063Z,1.20
2019-03-17T23:21:15.421Z,0.87
2019-03-17T23:23:52.844Z,0.93
2019-03-17T23:26:25.066Z,1.30
2019-03-17T23:28:54.192Z,0.90
2019-03-17T23:31:26.340Z,0.70
2019-03-17T23:33:55.398Z,1.27
2019-03-17T23:36:24.471Z,1.30
2019-03-17T23:38:53.529Z,1.70
2019-03-17T23:41:22.604Z,1.33
2019-03-17T23:43:51.685Z,1.20
2019-03-17T23:46:20.788Z,1.03
2019-03-17T23:48:49.811Z,1.30
2019-03-17T23:51:18.859Z,1.63
2019-03-17T23:53:47.905Z,1.60
2019-03-17T23:56:17.128Z,1.00
2019-03-17T23:58:47.829Z,0.90
